Humidity-temperature Sensor

Selected Measurement Type: Relative Humidity

 
Relative Humidity [%]     6 entries per hour
Showing data from 4/6/2015 (00:00:00 Z) to 3/30/2015 (00:01:00 Z)
Previous Next [ Day | 3-Days | 7-Days ]
First Last
Prev [ Day | 3-Days | 7-Days ] Next
First Last

Start Time:     :
End Time:     :     
Time (in GMT) :00 :50 :40 :30 :20 :10
Previous Next [ Day | 3-Days | 7-Days ]
First Last
Prev [ Day | 3-Days | 7-Days ] Next
First Last


123 => good data
MM => data is determined as missing
-- => data not received/configured
Back to Top Back to Top
4/6/2015 00:00 to 23:10 85.05 84.64 84.34 84.14 83.56 84.66
4/5/2015 23:00 to 22:10 84.45 83.34 84.75 83.19 83.43 84.10
4/5/2015 22:00 to 21:10 83.47 83.84 83.43 84.25 83.99 84.49
4/5/2015 21:00 to 20:10 83.41 82.89 83.73 84.53 84.21 84.06
4/5/2015 20:00 to 19:10 84.17 83.71 83.84 83.99 83.30 82.05
4/5/2015 19:00 to 18:10 83.11 83.11 83.78 84.40 84.62 83.86
4/5/2015 18:00 to 17:10 83.06 83.37 83.71 84.97 82.52 82.35
4/5/2015 17:00 to 16:10 81.98 81.09 82.78 83.56 83.32 82.95
4/5/2015 16:00 to 15:10 83.32 83.06 83.39 83.13 84.45 84.10
4/5/2015 15:00 to 14:10 85.49 84.56 85.94 86.53 85.23 85.05
4/5/2015 14:00 to 13:10 85.57 84.30 83.75 83.26 85.27 83.93
4/5/2015 13:00 to 12:10 85.49 84.66 83.95 85.36 86.05 86.07
4/5/2015 12:00 to 11:10 85.51 85.51 84.95 84.69 84.47 86.40
4/5/2015 11:00 to 10:10 87.98 88.06 87.11 87.07 87.20 87.00
4/5/2015 10:00 to 9:10 85.92 85.16 84.79 84.73 86.59 87.43
4/5/2015 09:00 to 8:10 86.53 86.61 86.16 85.27 85.55 84.90
4/5/2015 08:00 to 7:10 86.66 87.13 86.42 85.46 85.98 86.01
4/5/2015 07:00 to 6:10 86.37 86.59 85.64 84.43 83.88 84.69
4/5/2015 06:00 to 5:10 85.57 85.16 83.97 84.95 85.40 85.36
4/5/2015 05:00 to 4:10 86.16 85.88 85.29 85.03 85.36 85.77
4/5/2015 04:00 to 3:10 85.66 85.46 86.70 86.14 86.48 85.75
4/5/2015 03:00 to 2:10 85.88 83.60 83.30 83.99 83.80 83.80
4/5/2015 02:00 to 1:10 84.58 85.51 83.58 84.86 84.17 85.79
4/5/2015 01:00 to 0:10 85.92 84.69 84.62 85.49 85.55 85.90
4/5/2015 00:00 to 23:10 84.23 84.45 84.66 84.71 86.57 87.35
4/4/2015 23:00 to 22:10 86.01 86.68 86.37 86.94 86.40 86.76
4/4/2015 22:00 to 21:10 86.07 86.89 86.27 87.39 86.96 86.76
4/4/2015 21:00 to 20:10 86.74 86.37 86.18 86.24 86.20 87.41
4/4/2015 20:00 to 19:10 86.63 87.04 86.70 85.70 87.15 86.70
4/4/2015 19:00 to 18:10 85.90 86.81 85.55 85.90 85.14 83.99
4/4/2015 18:00 to 17:10 84.92 84.36 85.38 84.79 84.60 84.23
4/4/2015 17:00 to 16:10 84.30 84.71 83.95 83.97 84.34 82.76
4/4/2015 16:00 to 15:10 86.05 86.76 85.81 87.22 86.70 86.53
4/4/2015 15:00 to 14:10 87.28 85.46 85.68 84.88 85.31 85.94
4/4/2015 14:00 to 13:10 86.44 87.20 86.94 87.43 86.89 86.37
4/4/2015 13:00 to 12:10 85.94 86.63 86.29 87.85 87.24 87.48
4/4/2015 12:00 to 11:10 87.78 87.13 86.72 87.22 86.40 85.94
4/4/2015 11:00 to 10:10 86.72 85.44 84.95 87.04 87.67 86.29
4/4/2015 10:00 to 9:10 87.85 88.11 87.95 90.05 89.75 89.99
4/4/2015 09:00 to 8:10 89.27 90.42 90.14 90.16 90.03 90.44
4/4/2015 08:00 to 7:10 89.27 88.75 89.51 89.71 88.67 90.40
4/4/2015 07:00 to 6:10 90.16 89.88 90.88 90.40 88.99 90.05
4/4/2015 06:00 to 5:10 90.72 94.01 94.77 96.98 96.76 97.41
4/4/2015 05:00 to 4:10 97.52 97.65 97.04 92.04 94.86 96.40
4/4/2015 04:00 to 3:10 96.66 96.24 92.82 90.38 91.27 87.07
4/4/2015 03:00 to 2:10 84.62 83.82 83.75 84.77 84.73 84.79
4/4/2015 02:00 to 1:10 84.47 84.04 84.43 84.53 84.04 83.43
4/4/2015 01:00 to 0:10 84.53 85.34 85.83 86.61 85.92 86.05
4/4/2015 00:00 to 23:10 87.41 87.54 88.21 86.81 86.81 86.59
4/3/2015 23:00 to 22:10 86.87 86.94 88.11 87.74 88.21 88.06
4/3/2015 22:00 to 21:10 88.08 88.19 87.24 88.17 87.52 87.20
4/3/2015 21:00 to 20:10 86.96 87.02 87.35 88.52 87.39 86.72
4/3/2015 20:00 to 19:10 88.69 90.14 89.97 89.95 89.06 89.27
4/3/2015 19:00 to 18:10 89.04 89.66 90.57 91.29 91.31 90.12
4/3/2015 18:00 to 17:10 89.17 88.88 87.91 89.32 91.76 95.36
4/3/2015 17:00 to 16:10 95.92 96.55 90.08 89.45 88.69 87.37
4/3/2015 16:00 to 15:10 86.33 86.87 87.72 87.82 87.91 87.78
4/3/2015 15:00 to 14:10 88.15 89.84 88.24 88.95 88.95 87.46
4/3/2015 14:00 to 13:10 88.43 89.38 88.73 87.37 87.56 86.63
4/3/2015 13:00 to 12:10 87.72 87.52 87.95 87.26 88.08 88.88
4/3/2015 12:00 to 11:10 88.80 88.15 89.30 88.52 87.67 87.43
4/3/2015 11:00 to 10:10 86.44 87.20 87.56 88.17 88.41 91.35
4/3/2015 10:00 to 9:10 91.55 91.85 91.31 91.14 89.40 88.06
4/3/2015 09:00 to 8:10 87.98 88.17 91.05 91.92 88.00 88.19
4/3/2015 08:00 to 7:10 88.30 88.63 87.54 87.39 87.91 87.93
4/3/2015 07:00 to 6:10 85.44 87.17 85.29 85.68 87.59 86.14
4/3/2015 06:00 to 5:10 85.70 85.21 85.14 85.31 85.03 84.53
4/3/2015 05:00 to 4:10 84.69 87.13 87.37 86.42 87.98 87.93
4/3/2015 04:00 to 3:10 86.61 87.37 86.68 86.87 85.72 85.36
4/3/2015 03:00 to 2:10 85.59 85.16 84.60 84.45 83.65 84.06
4/3/2015 02:00 to 1:10 84.08 84.25 84.01 83.52 83.67 83.73
4/3/2015 01:00 to 0:10 84.04 83.80 84.30 84.90 85.14 84.64
4/3/2015 00:00 to 23:10 83.73 83.75 83.08 83.39 82.89 82.74
4/2/2015 23:00 to 22:10 82.85 84.34 84.25 86.24 85.79 86.05
4/2/2015 22:00 to 21:10 86.05 87.04 86.81 85.77 86.94 86.31
4/2/2015 21:00 to 20:10 87.65 87.24 85.29 86.50 86.37 86.42
4/2/2015 20:00 to 19:10 86.31 85.27 85.16 84.10 84.56 85.55
4/2/2015 19:00 to 18:10 86.85 85.72 86.72 86.68 86.22 86.03
4/2/2015 18:00 to 17:10 85.81 86.35 86.18 86.48 86.29 85.70
4/2/2015 17:00 to 16:10 85.14 85.59 85.62 85.68 86.07 86.33
4/2/2015 16:00 to 15:10 85.70 86.11 87.22 87.28 86.63 85.49
4/2/2015 15:00 to 14:10 85.42 84.95 85.16 85.46 85.81 86.31
4/2/2015 14:00 to 13:10 86.22 86.57 87.30 86.70 87.11 86.01
4/2/2015 13:00 to 12:10 86.11 87.95 85.51 85.88 87.30 87.24
4/2/2015 12:00 to 11:10 88.45 87.78 87.85 89.62 88.80 88.08
4/2/2015 11:00 to 10:10 89.12 88.47 89.64 90.57 88.39 87.39
4/2/2015 10:00 to 9:10 87.37 87.72 88.73 89.66 90.25 90.01
4/2/2015 09:00 to 8:10 90.03 91.29 91.74 91.40 91.50 91.57
4/2/2015 08:00 to 7:10 91.20 91.50 90.38 89.40 89.77 89.04
4/2/2015 07:00 to 6:10 88.82 89.43 89.32 89.51 89.04 88.69
4/2/2015 06:00 to 5:10 88.06 87.95 88.00 87.13 85.92 84.08
4/2/2015 05:00 to 4:10 85.49 84.77 84.51 82.50 81.35 82.65
4/2/2015 04:00 to 3:10 82.82 84.06 82.87 84.79 85.96 86.68
4/2/2015 03:00 to 2:10 88.17 89.75 89.40 89.38 91.76 93.19
4/2/2015 02:00 to 1:10 89.04 89.58 90.27 93.45 97.28 98.95
4/2/2015 01:00 to 0:10 99.75 -- 99.58 99.43 99.47 99.64
4/2/2015 00:00 to 23:10 -- 99.88 99.17 93.43 86.27 85.85
4/1/2015 23:00 to 22:10 87.02 88.21 89.43 91.01 90.83 89.49
4/1/2015 22:00 to 21:10 87.95 87.02 84.92 83.00 84.40 85.55
4/1/2015 21:00 to 20:10 85.72 87.39 89.58 90.64 92.69 93.32
4/1/2015 20:00 to 19:10 93.86 89.17 88.65 88.30 87.91 87.65
4/1/2015 19:00 to 18:10 87.43 87.46 87.63 88.50 88.15 87.67
4/1/2015 18:00 to 17:10 88.17 88.13 88.52 88.37 89.27 90.16
4/1/2015 17:00 to 16:10 89.06 88.52 88.71 86.96 88.30 88.39
4/1/2015 16:00 to 15:10 88.84 90.08 90.05 87.78 87.33 87.15
4/1/2015 15:00 to 14:10 87.07 86.68 87.04 87.15 88.26 87.89
4/1/2015 14:00 to 13:10 88.65 88.84 88.69 88.60 88.86 88.52
4/1/2015 13:00 to 12:10 88.13 87.91 87.13 87.33 88.28 88.30
4/1/2015 12:00 to 11:10 88.69 88.97 89.14 89.36 89.51 89.97
4/1/2015 11:00 to 10:10 89.66 89.43 88.82 88.52 87.80 87.50
4/1/2015 10:00 to 9:10 86.89 86.53 87.00 87.07 87.00 87.04
4/1/2015 09:00 to 8:10 86.70 86.44 86.40 86.68 86.61 86.98
4/1/2015 08:00 to 7:10 86.72 86.87 86.57 87.09 86.61 86.53
4/1/2015 07:00 to 6:10 86.29 86.72 87.30 87.00 86.46 86.42
4/1/2015 06:00 to 5:10 85.68 85.79 85.46 86.05 85.42 84.43
4/1/2015 05:00 to 4:10 85.29 86.07 85.12 84.95 85.14 83.97
4/1/2015 04:00 to 3:10 84.82 84.14 84.08 83.45 83.15 83.32
4/1/2015 03:00 to 2:10 83.37 81.83 82.95 82.37 82.26 82.76
4/1/2015 02:00 to 1:10 81.55 82.54 81.33 81.40 81.37 81.07
4/1/2015 01:00 to 0:10 81.59 81.57 80.79 81.48 82.61 82.37
4/1/2015 00:00 to 23:10 82.22 82.00 82.26 82.17 82.67 82.76
3/31/2015 23:00 to 22:10 82.30 81.35 81.27 81.92 82.85 83.08
3/31/2015 22:00 to 21:10 82.80 82.82 83.04 82.63 83.13 83.26
3/31/2015 21:00 to 20:10 82.56 83.28 82.56 82.28 82.33 82.15
3/31/2015 20:00 to 19:10 82.91 80.49 81.70 81.53 81.59 81.57
3/31/2015 19:00 to 18:10 81.59 81.31 80.70 81.92 81.29 80.25
3/31/2015 18:00 to 17:10 81.46 80.70 79.49 80.53 79.66 81.63
3/31/2015 17:00 to 16:10 80.31 79.62 80.16 79.64 81.22 81.31
3/31/2015 16:00 to 15:10 80.16 81.20 80.79 82.39 81.89 82.80
3/31/2015 15:00 to 14:10 79.95 81.27 81.74 82.61 81.79 82.46
3/31/2015 14:00 to 13:10 82.11 83.08 83.13 82.59 83.73 83.65
3/31/2015 13:00 to 12:10 83.17 82.39 82.37 83.41 83.54 83.02
3/31/2015 12:00 to 11:10 83.28 82.72 82.33 83.86 82.67 82.00
3/31/2015 11:00 to 10:10 82.09 82.35 82.26 82.41 81.87 80.36
3/31/2015 10:00 to 9:10 82.72 81.53 83.00 83.60 81.42 82.17
3/31/2015 09:00 to 8:10 81.92 82.61 82.41 81.89 81.48 81.16
3/31/2015 08:00 to 7:10 81.22 81.66 81.92 81.74 83.26 82.17
3/31/2015 07:00 to 6:10 82.74 81.44 82.00 82.33 81.57 81.03
3/31/2015 06:00 to 5:10 80.42 82.02 80.62 81.16 79.53 81.33
3/31/2015 05:00 to 4:10 81.20 79.95 82.02 80.10 79.95 80.49
3/31/2015 04:00 to 3:10 79.51 79.32 78.32 79.84 79.79 78.15
3/31/2015 03:00 to 2:10 77.91 78.19 77.78 76.92 77.46 78.19
3/31/2015 02:00 to 1:10 78.11 79.01 78.97 79.19 78.93 77.85
3/31/2015 01:00 to 0:10 78.84 78.54 79.27 79.95 79.17 80.05
3/31/2015 00:00 to 23:10 79.99 80.08 80.14 80.64 80.46 79.75
3/30/2015 23:00 to 22:10 79.19 80.90 80.79 81.57 80.83 81.01
3/30/2015 22:00 to 21:10 80.42 80.98 80.23 80.12 80.68 81.03
3/30/2015 21:00 to 20:10 80.57 80.64 80.88 80.36 81.31 81.57
3/30/2015 20:00 to 19:10 81.83 80.79 80.77 81.98 81.07 81.48
3/30/2015 19:00 to 18:10 80.29 81.20 81.07 81.24 81.03 81.27
3/30/2015 18:00 to 17:10 81.20 80.29 80.36 79.82 81.48 82.43
3/30/2015 17:00 to 16:10 81.98 82.72 81.81 80.77 79.38 80.51
3/30/2015 16:00 to 15:10 81.92 80.81 80.34 81.53 81.37 82.15
3/30/2015 15:00 to 14:10 81.22 81.44 81.79 81.14 79.66 81.63
3/30/2015 14:00 to 13:10 82.09 81.55 81.66 81.83 80.29 81.72
3/30/2015 13:00 to 12:10 81.07 80.79 80.90 81.81 81.96 81.85
3/30/2015 12:00 to 11:10 83.15 82.24 81.57 81.46 81.18 81.63
3/30/2015 11:00 to 10:10 81.89 81.83 82.09 81.42 81.16 82.41
3/30/2015 10:00 to 9:10 82.87 82.95 83.17 82.76 83.39 82.54
3/30/2015 09:00 to 8:10 82.20 81.53 80.98 82.24 81.59 82.30
3/30/2015 08:00 to 7:10 81.70 83.02 82.46 82.78 82.35 81.18
3/30/2015 07:00 to 6:10 82.50 81.05 81.01 80.59 80.55 80.31
3/30/2015 06:00 to 5:10 81.57 80.44 82.46 82.50 81.03 82.74
3/30/2015 05:00 to 4:10 81.96 80.62 82.89 82.74 81.57 81.18
3/30/2015 04:00 to 3:10 82.48 81.96 81.29 81.74 81.55 80.94
3/30/2015 03:00 to 2:10 79.32 79.58 79.19 79.25 79.64 79.56
3/30/2015 02:00 to 1:10 77.69 77.26 78.78 78.63 78.26 78.58
3/30/2015 01:00 to 0:10 78.69 78.60 78.28 79.10 78.78 80.40